Miriam Borchard — V2QE9 — position and weather

sailwx.info

Track history (hours):
 
Tides and Currents Weather Stations Pressure Air Temp Water Temp Dewpoint Dewpoint Depression Visibility Wind Speed Wind Dir Waves Ship Positions

Miriam Borchard

Last reported at 2017-Dec-17 21:03 UTC. Time now 2017-Dec-18 15:00 UTC.
Position N 42°33' E 010°17'.

Length 141 m; draft 7.7 m.

Type: Ship (hazmat cat A). MMSI: 305446000.

Date/timePositionNaut miles runAvg speedWind from/ knotsBaromVisibWave heightAir tempDewpointWater temp
2017-Dec-17 21:03N 42°33' E 010°17'2414.2
2017-Dec-17 19:20N 42°48' E 009°51'2113.0
2017-Dec-17 17:41N 43°06' E 009°34'314.3
2017-Dec-17 17:30N 43°08' E 009°33'714.0
2017-Dec-17 17:00N 43°15' E 009°30'713.8
2017-Dec-17 16:31N 43°21' E 009°27'813.8
2017-Dec-17 15:58N 43°28' E 009°23'613.7
2017-Dec-17 15:31N 43°34' E 009°20'713.8
2017-Dec-17 15:00N 43°41' E 009°17'713.6
2017-Dec-17 14:30N 43°47' E 009°14'713.7
2017-Dec-17 13:58N 43°54' E 009°11'613.8
2017-Dec-17 13:30N 44°00' E 009°08'713.8
2017-Dec-17 13:00N 44°06' E 009°04'714.2
2017-Dec-17 12:30N 44°13' E 009°01'714.6
2017-Dec-17 12:00N 44°20' E 008°58'5 9.5
2017-Dec-17 11:30N 44°24' E 008°54'0 0.8
2017-Dec-17 11:00N 44°24' E 008°54'0 0.0
2017-Dec-17 10:30N 44°24' E 008°54'0 0.0
2017-Dec-17 10:00N 44°24' E 008°54'0 0.0
2017-Dec-17 09:30N 44°24' E 008°54'0 0.0
2017-Dec-17 09:00N 44°24' E 008°54'0 0.0
2017-Dec-17 08:30N 44°24' E 008°54'0 0.0
2017-Dec-17 08:00N 44°24' E 008°54'0 0.0
2017-Dec-17 07:30N 44°24' E 008°54'0 0.0
2017-Dec-17 07:00N 44°24' E 008°54'0 0.0
2017-Dec-17 06:30N 44°24' E 008°54'0 0.0
2017-Dec-17 06:00N 44°24' E 008°54'0 0.0
2017-Dec-17 05:30N 44°24' E 008°54'0 0.0
2017-Dec-17 05:00N 44°24' E 008°54'0 0.3
2017-Dec-17 04:31N 44°24' E 008°54'3 6.5
2017-Dec-17 04:00N 44°22' E 008°58'4 8.2
2017-Dec-17 03:30N 44°18' E 008°57'611.9
2017-Dec-17 03:00N 44°15' E 008°50'611.6
2017-Dec-17 02:30N 44°11' E 008°44'612.0
2017-Dec-17 02:00N 44°07' E 008°38'612.3
2017-Dec-17 01:30N 44°03' E 008°31'612.2
2017-Dec-17 01:00N 43°59' E 008°25'6112.5
2017-Dec-16 20:05N 43°19' E 007°21'213.6
2017-Dec-16 19:57N 43°18' E 007°19'613.5
2017-Dec-16 19:29N 43°14' E 007°12'613.3
2017-Dec-16 19:01N 43°10' E 007°06'8211.8
2017-Dec-16 12:06N 43°09' E 005°14'214.7
2017-Dec-16 11:59N 43°10' E 005°12'612.8
2017-Dec-16 11:30N 43°16' E 005°09'713.8
2017-Dec-16 11:00N 43°20' E 005°17'2 0.1
2017-Dec-15 19:02N 43°21' E 005°20'1 7.4
2017-Dec-15 18:58N 43°21' E 005°19'3 6.5
2017-Dec-15 18:30N 43°19' E 005°16'713.2
2017-Dec-15 18:00N 43°14' E 005°11'812.7
2017-Dec-15 17:23N 43°09' E 005°03'514.3
2017-Dec-15 17:00N 43°06' E 004°56'163 6.1
2017-Dec-14 14:07N 41°18' E 002°11'53312.4
2017-Dec-12 19:00N 40°33' E 013°54'2313.8
2017-Dec-12 17:20N 40°32' E 014°25'69 6.1
2017-Dec-12 06:07N 39°31' E 015°06'215.8
2017-Dec-12 05:59N 39°29' E 015°07'3615.8
2017-Dec-12 03:41N 38°55' E 015°23'716.1
2017-Dec-12 03:13N 38°48' E 015°27'416.3
2017-Dec-12 03:00N 38°44' E 015°28'816.4
2017-Dec-12 02:30N 38°37' E 015°32'816.5
2017-Dec-12 02:00N 38°29' E 015°36'816.6
2017-Dec-12 01:30N 38°22' E 015°39'713.1
2017-Dec-12 00:56N 38°14' E 015°38'716.1
2017-Dec-12 00:30N 38°07' E 015°36'815.9
2017-Dec-12 00:00N 37°59' E 015°36'714.8
2017-Dec-11 23:30N 37°54' E 015°41'1216.4
2017-Dec-11 22:47N 37°48' E 015°55'516.4
2017-Dec-11 22:29N 37°45' E 016°00'816.3
2017-Dec-11 22:00N 37°42' E 016°09'  
Track history (hours):
 
Tides and Currents Weather Stations Pressure Air Temp Water Temp Dewpoint Dewpoint Depression Visibility Wind Speed Wind Dir Waves Ship Positions

Miriam Borchard

Last reported at 2017-Dec-17 21:03 UTC. Time now 2017-Dec-18 15:00 UTC.
Position N 42°33' E 010°17'.

Length 141 m; draft 7.7 m.

Type: Ship (hazmat cat A). MMSI: 305446000.

Date/timePositionNaut miles runAvg speedWind from/ knotsBaromVisibWave heightAir tempDewpointWater temp
2017-Dec-17 21:03N 42°33' E 010°17'2414.2
2017-Dec-17 19:20N 42°48' E 009°51'2113.0
2017-Dec-17 17:41N 43°06' E 009°34'314.3
2017-Dec-17 17:30N 43°08' E 009°33'714.0
2017-Dec-17 17:00N 43°15' E 009°30'713.8
2017-Dec-17 16:31N 43°21' E 009°27'813.8
2017-Dec-17 15:58N 43°28' E 009°23'613.7
2017-Dec-17 15:31N 43°34' E 009°20'713.8
2017-Dec-17 15:00N 43°41' E 009°17'713.6
2017-Dec-17 14:30N 43°47' E 009°14'713.7
2017-Dec-17 13:58N 43°54' E 009°11'613.8
2017-Dec-17 13:30N 44°00' E 009°08'713.8
2017-Dec-17 13:00N 44°06' E 009°04'714.2
2017-Dec-17 12:30N 44°13' E 009°01'714.6
2017-Dec-17 12:00N 44°20' E 008°58'5 9.5
2017-Dec-17 11:30N 44°24' E 008°54'0 0.8
2017-Dec-17 11:00N 44°24' E 008°54'0 0.0
2017-Dec-17 10:30N 44°24' E 008°54'0 0.0
2017-Dec-17 10:00N 44°24' E 008°54'0 0.0
2017-Dec-17 09:30N 44°24' E 008°54'0 0.0
2017-Dec-17 09:00N 44°24' E 008°54'0 0.0
2017-Dec-17 08:30N 44°24' E 008°54'0 0.0
2017-Dec-17 08:00N 44°24' E 008°54'0 0.0
2017-Dec-17 07:30N 44°24' E 008°54'0 0.0
2017-Dec-17 07:00N 44°24' E 008°54'0 0.0
2017-Dec-17 06:30N 44°24' E 008°54'0 0.0
2017-Dec-17 06:00N 44°24' E 008°54'0 0.0
2017-Dec-17 05:30N 44°24' E 008°54'0 0.0
2017-Dec-17 05:00N 44°24' E 008°54'0 0.3
2017-Dec-17 04:31N 44°24' E 008°54'3 6.5
2017-Dec-17 04:00N 44°22' E 008°58'4 8.2
2017-Dec-17 03:30N 44°18' E 008°57'611.9
2017-Dec-17 03:00N 44°15' E 008°50'611.6
2017-Dec-17 02:30N 44°11' E 008°44'612.0
2017-Dec-17 02:00N 44°07' E 008°38'612.3
2017-Dec-17 01:30N 44°03' E 008°31'612.2
2017-Dec-17 01:00N 43°59' E 008°25'6112.5
2017-Dec-16 20:05N 43°19' E 007°21'213.6
2017-Dec-16 19:57N 43°18' E 007°19'613.5
2017-Dec-16 19:29N 43°14' E 007°12'613.3
2017-Dec-16 19:01N 43°10' E 007°06'8211.8
2017-Dec-16 12:06N 43°09' E 005°14'214.7
2017-Dec-16 11:59N 43°10' E 005°12'612.8
2017-Dec-16 11:30N 43°16' E 005°09'713.8
2017-Dec-16 11:00N 43°20' E 005°17'2 0.1
2017-Dec-15 19:02N 43°21' E 005°20'1 7.4
2017-Dec-15 18:58N 43°21' E 005°19'3 6.5
2017-Dec-15 18:30N 43°19' E 005°16'713.2
2017-Dec-15 18:00N 43°14' E 005°11'812.7
2017-Dec-15 17:23N 43°09' E 005°03'514.3
2017-Dec-15 17:00N 43°06' E 004°56'163 6.1
2017-Dec-14 14:07N 41°18' E 002°11'53312.4
2017-Dec-12 19:00N 40°33' E 013°54'2313.8
2017-Dec-12 17:20N 40°32' E 014°25'69 6.1
2017-Dec-12 06:07N 39°31' E 015°06'215.8
2017-Dec-12 05:59N 39°29' E 015°07'3615.8
2017-Dec-12 03:41N 38°55' E 015°23'716.1
2017-Dec-12 03:13N 38°48' E 015°27'416.3
2017-Dec-12 03:00N 38°44' E 015°28'816.4
2017-Dec-12 02:30N 38°37' E 015°32'816.5
2017-Dec-12 02:00N 38°29' E 015°36'816.6
2017-Dec-12 01:30N 38°22' E 015°39'713.1
2017-Dec-12 00:56N 38°14' E 015°38'716.1
2017-Dec-12 00:30N 38°07' E 015°36'815.9
2017-Dec-12 00:00N 37°59' E 015°36'714.8
2017-Dec-11 23:30N 37°54' E 015°41'1216.4
2017-Dec-11 22:47N 37°48' E 015°55'516.4
2017-Dec-11 22:29N 37°45' E 016°00'816.3
2017-Dec-11 22:00N 37°42' E 016°09'  

Dump ship's entire track history